Terminal Aerodrome Forecast
Issued by NWS Louisville, KY

Home | Current Version | Previous Version | Text Only | Print | Product List | Glossary On
Versions: 1 2 3 4 5 6 7 8 9 10 11 12 13 14 15 16 17 18 19 20
784
FTUS43 KLMK 171021 AAA
TAFBWG
TAF AMD
KBWG 171021Z 1710/1806 07005KT P6SM OVC130
     FM171400 05004KT 5SM -RA BR OVC022
     FM171700 VRB04KT 5SM -RA BR OVC009
     FM172100 VRB04KT 6SM BR OVC007
     FM180300 VRB04KT P6SM OVC017=

USA.gov is the U.S. government's official web portal to all federal, state and local government web resources and services.